Time;durP1;ratioP1;P1;durP2;ratioP2;P2;SDS_P1;SDS_P2;PMS_P1;PMS_P2;Temp;Humidity;BMP_temperature;BMP_pressure;BME280_temperature;BME280_humidity;BME280_pressure;Samples;Min_cycle;Max_cycle;Signal;HPM_P1;HPM_P2
2022/10/22 00:01:02;;;;;;;31.50;20.40;;;;;;;;;;5033430;28;20179;-71
2022/10/22 00:03:28;;;;;;;28.17;18.13;;;;;;;;;;5032228;28;20257;-70
2022/10/22 00:05:55;;;;;;;27.17;17.37;;;;;;;;;;5031763;28;20187;-71
2022/10/22 00:08:22;;;;;;;34.07;21.53;;;;;;;;;;5028917;28;20234;-71
2022/10/22 00:10:49;;;;;;;36.97;23.13;;;;;;;;;;5015178;28;20207;-71
2022/10/22 00:13:16;;;;;;;38.50;21.90;;;;;;;;;;5033208;28;20183;-71
2022/10/22 00:15:42;;;;;;;32.80;21.50;;;;;;;;;;5032697;28;20253;-71
2022/10/22 00:18:09;;;;;;;33.17;21.33;;;;;;;;;;5032886;28;20180;-71
2022/10/22 00:20:36;;;;;;;35.00;20.60;;;;;;;;;;5031777;28;20543;-71
2022/10/22 00:23:02;;;;;;;31.43;21.33;;;;;;;;;;5031512;28;20988;-71
2022/10/22 00:25:29;;;;;;;35.07;22.20;;;;;;;;;;5032492;28;20191;-72
2022/10/22 00:27:56;;;;;;;32.10;21.17;;;;;;;;;;5015650;28;20617;-72
2022/10/22 00:30:23;;;;;;;30.63;20.77;;;;;;;;;;5032403;28;20302;-71
2022/10/22 00:32:49;;;;;;;32.33;19.80;;;;;;;;;;5030876;28;20261;-71
2022/10/22 00:35:16;;;;;;;31.50;20.37;;;;;;;;;;5032528;28;20698;-71
2022/10/22 00:37:43;;;;;;;29.47;19.27;;;;;;;;;;5032211;28;20179;-71
2022/10/22 00:40:10;;;;;;;31.17;20.00;;;;;;;;;;5015220;28;20188;-71
2022/10/22 00:42:36;;;;;;;31.90;21.00;;;;;;;;;;5032448;28;20838;-72
2022/10/22 00:45:09;;;;;;;30.73;20.77;;;;;;;;;;5032277;28;20211;-71
2022/10/22 00:47:40;;;;;;;28.53;18.30;;;;;;;;;;5032343;28;20215;-71
2022/10/22 00:50:08;;;;;;;31.17;21.00;;;;;;;;;;5032187;28;20225;-71
2022/10/22 00:52:35;;;;;;;31.17;19.97;;;;;;;;;;5031438;28;20667;-71
2022/10/22 00:55:01;;;;;;;28.63;19.17;;;;;;;;;;5032689;28;20193;-71
2022/10/22 00:57:28;;;;;;;30.33;19.93;;;;;;;;;;5031886;28;20199;-71
2022/10/22 00:59:55;;;;;;;33.53;21.67;;;;;;;;;;5013884;28;20274;-70
2022/10/22 01:02:21;;;;;;;31.13;20.30;;;;;;;;;;5014585;28;20183;-71
2022/10/22 01:04:48;;;;;;;31.33;19.57;;;;;;;;;;5031944;28;20222;-71
2022/10/22 01:07:19;;;;;;;29.73;18.93;;;;;;;;;;5032081;28;20737;-71
2022/10/22 01:09:46;;;;;;;31.60;20.13;;;;;;;;;;5031708;28;20613;-71
2022/10/22 01:12:26;;;;;;;31.90;20.87;;;;;;;;;;5031908;28;20191;-71
2022/10/22 01:14:53;;;;;;;27.83;18.87;;;;;;;;;;5013643;28;20270;-71
2022/10/22 01:17:20;;;;;;;36.20;22.47;;;;;;;;;;5031740;28;20298;-71
2022/10/22 01:19:57;;;;;;;28.43;19.23;;;;;;;;;;5030620;28;20191;-71
2022/10/22 01:22:32;;;;;;;33.17;20.90;;;;;;;;;;5029999;28;20195;-71
2022/10/22 01:25:06;;;;;;;30.40;19.77;;;;;;;;;;5014682;28;20195;-71
2022/10/22 01:27:42;;;;;;;29.87;20.40;;;;;;;;;;5031445;28;20531;-71
2022/10/22 01:30:09;;;;;;;30.40;20.50;;;;;;;;;;5031597;28;20229;-71
2022/10/22 01:32:41;;;;;;;33.53;21.77;;;;;;;;;;5013795;28;20195;-71
2022/10/22 01:35:08;;;;;;;32.27;22.10;;;;;;;;;;5013889;28;20196;-71
2022/10/22 01:37:40;;;;;;;35.77;21.37;;;;;;;;;;5013129;28;20206;-71
2022/10/22 01:40:08;;;;;;;31.07;21.10;;;;;;;;;;5014196;28;20200;-71
2022/10/22 01:42:34;;;;;;;33.10;21.37;;;;;;;;;;5013688;28;20551;-71
2022/10/22 01:45:01;;;;;;;31.27;20.73;;;;;;;;;;5031283;28;20219;-71
2022/10/22 01:47:36;;;;;;;33.53;21.97;;;;;;;;;;5030650;28;20243;-71
2022/10/22 01:50:08;;;;;;;30.37;20.77;;;;;;;;;;5031003;28;20195;-71
2022/10/22 01:52:47;;;;;;;31.50;21.17;;;;;;;;;;5030349;28;20692;-71
2022/10/22 01:55:13;;;;;;;28.90;20.00;;;;;;;;;;5031488;28;20274;-71
2022/10/22 01:57:40;;;;;;;31.47;21.03;;;;;;;;;;5030865;28;20198;-71
2022/10/22 02:00:08;;;;;;;34.03;21.60;;;;;;;;;;5030855;28;20195;-71
2022/10/22 02:02:35;;;;;;;35.93;23.03;;;;;;;;;;5030903;28;20195;-71
2022/10/22 02:05:12;;;;;;;35.50;23.17;;;;;;;;;;5030846;28;20247;-71
2022/10/22 02:07:40;;;;;;;38.67;23.90;;;;;;;;;;5029565;28;20290;-71
2022/10/22 02:10:08;;;;;;;39.10;24.03;;;;;;;;;;4997092;28;20682;-71
2022/10/22 02:12:34;;;;;;;36.30;24.00;;;;;;;;;;5013163;28;20635;-71
2022/10/22 02:15:01;;;;;;;40.23;23.67;;;;;;;;;;5013242;28;20647;-71
2022/10/22 02:17:28;;;;;;;37.00;24.50;;;;;;;;;;5012950;28;20253;-71
2022/10/22 02:19:56;;;;;;;37.57;24.13;;;;;;;;;;5013226;28;20191;-71
2022/10/22 02:22:23;;;;;;;35.67;23.43;;;;;;;;;;5012628;28;20183;-71
2022/10/22 02:24:50;;;;;;;38.10;24.37;;;;;;;;;;5012618;28;20269;-71
2022/10/22 02:27:17;;;;;;;34.17;21.93;;;;;;;;;;5030338;28;20195;-71
2022/10/22 02:29:53;;;;;;;34.90;22.53;;;;;;;;;;5030408;28;20188;-71
2022/10/22 02:32:21;;;;;;;34.43;23.00;;;;;;;;;;5012784;28;20562;-71
2022/10/22 02:34:47;;;;;;;34.67;22.33;;;;;;;;;;5012660;28;20547;-71
2022/10/22 02:37:14;;;;;;;34.33;22.83;;;;;;;;;;5012831;28;20172;-71
2022/10/22 02:39:41;;;;;;;34.67;22.20;;;;;;;;;;5012719;28;20201;-71
2022/10/22 02:42:07;;;;;;;34.53;22.80;;;;;;;;;;5011877;28;20199;-71
2022/10/22 02:44:34;;;;;;;33.83;22.63;;;;;;;;;;5012511;28;20617;-71
2022/10/22 02:47:18;;;;;;;33.03;22.03;;;;;;;;;;5029842;28;20207;-71
2022/10/22 02:49:45;;;;;;;33.93;23.67;;;;;;;;;;5012450;28;20202;-71
2022/10/22 02:52:12;;;;;;;38.27;25.10;;;;;;;;;;5030020;28;20254;-71
2022/10/22 02:54:38;;;;;;;36.70;24.93;;;;;;;;;;5012666;28;20191;-71
2022/10/22 02:57:05;;;;;;;38.13;24.13;;;;;;;;;;5029669;28;20253;-71
2022/10/22 02:59:32;;;;;;;36.57;24.43;;;;;;;;;;5011959;28;20191;-71
2022/10/22 03:01:59;;;;;;;37.80;24.10;;;;;;;;;;5029874;28;20191;-71
2022/10/22 03:04:26;;;;;;;38.27;24.60;;;;;;;;;;5029304;28;20210;-71
2022/10/22 03:06:53;;;;;;;37.50;24.53;;;;;;;;;;5029937;28;20263;-71
2022/10/22 03:09:20;;;;;;;34.07;23.23;;;;;;;;;;5029704;28;20270;-71
2022/10/22 03:11:50;;;;;;;37.27;24.50;;;;;;;;;;5029693;28;20195;-71
2022/10/22 03:14:17;;;;;;;38.60;25.00;;;;;;;;;;5021730;28;20192;-71
2022/10/22 03:16:43;;;;;;;36.50;24.47;;;;;;;;;;4995703;28;20628;-71
2022/10/22 03:19:10;;;;;;;34.87;23.07;;;;;;;;;;5029775;28;20188;-71
2022/10/22 03:21:41;;;;;;;34.60;22.90;;;;;;;;;;5029161;28;20203;-71
2022/10/22 03:24:10;;;;;;;34.13;22.30;;;;;;;;;;5011904;28;20195;-71
2022/10/22 03:26:37;;;;;;;33.53;22.40;;;;;;;;;;5012223;28;20180;-71
2022/10/22 03:29:04;;;;;;;33.20;22.77;;;;;;;;;;5011843;28;20680;-71
2022/10/22 03:31:30;;;;;;;37.30;22.93;;;;;;;;;;5011593;28;20713;-71
2022/10/22 03:33:57;;;;;;;34.00;22.57;;;;;;;;;;5010795;28;20187;-71
2022/10/22 03:36:24;;;;;;;31.90;22.00;;;;;;;;;;5028214;28;20547;-71
2022/10/22 03:38:51;;;;;;;33.40;22.07;;;;;;;;;;5011154;28;20562;-71
2022/10/22 03:41:17;;;;;;;28.73;20.30;;;;;;;;;;5011594;28;20594;-71
2022/10/22 03:43:48;;;;;;;30.73;20.70;;;;;;;;;;5027837;28;20199;-71
2022/10/22 03:46:15;;;;;;;33.40;22.43;;;;;;;;;;4993090;28;20224;-71
2022/10/22 03:48:42;;;;;;;31.43;22.00;;;;;;;;;;5016851;28;20220;-70
2022/10/22 03:51:09;;;;;;;37.67;24.43;;;;;;;;;;5026536;28;20222;-71
2022/10/22 03:53:35;;;;;;;32.50;20.87;;;;;;;;;;5029163;28;20717;-70
2022/10/22 03:56:06;;;;;;;28.10;20.20;;;;;;;;;;5028953;28;20187;-71
2022/10/22 03:58:33;;;;;;;28.73;19.97;;;;;;;;;;5010683;28;20606;-71
2022/10/22 04:01:03;;;;;;;33.77;20.53;;;;;;;;;;4994475;28;20187;-70
2022/10/22 04:03:30;;;;;;;34.03;22.73;;;;;;;;;;5027979;28;20245;-70
2022/10/22 04:06:03;;;;;;;29.83;19.53;;;;;;;;;;5010460;28;20825;-71
2022/10/22 04:08:30;;;;;;;35.50;22.43;;;;;;;;;;5027586;28;20214;-71
2022/10/22 04:10:57;;;;;;;30.77;20.67;;;;;;;;;;5011703;28;20184;-71
2022/10/22 04:13:24;;;;;;;29.07;20.50;;;;;;;;;;5027709;28;20206;-70
2022/10/22 04:15:51;;;;;;;29.80;20.13;;;;;;;;;;5010810;28;20188;-71
2022/10/22 04:18:18;;;;;;;34.17;22.27;;;;;;;;;;5008097;28;20286;-70
2022/10/22 04:20:45;;;;;;;35.97;23.10;;;;;;;;;;5008017;28;20196;-70
2022/10/22 04:23:12;;;;;;;34.33;23.00;;;;;;;;;;5016732;28;20253;-71
2022/10/22 04:25:39;;;;;;;34.67;23.63;;;;;;;;;;5010685;28;20223;-70
2022/10/22 04:28:07;;;;;;;34.53;23.30;;;;;;;;;;5011424;28;20199;-70
2022/10/22 04:30:34;;;;;;;34.13;22.90;;;;;;;;;;5011624;28;20187;-71
2022/10/22 04:33:00;;;;;;;36.30;23.90;;;;;;;;;;5010970;28;20195;-71
2022/10/22 04:35:27;;;;;;;32.90;22.70;;;;;;;;;;5032245;28;20188;-70
2022/10/22 04:37:54;;;;;;;33.77;22.73;;;;;;;;;;5047728;28;20186;-70
2022/10/22 04:40:21;;;;;;;33.27;22.50;;;;;;;;;;5032301;28;20194;-71
2022/10/22 04:42:48;;;;;;;35.27;22.57;;;;;;;;;;5013566;28;20192;-71
2022/10/22 04:45:14;;;;;;;33.03;22.30;;;;;;;;;;5031221;28;20207;-71
2022/10/22 04:47:41;;;;;;;36.20;21.77;;;;;;;;;;5031336;28;20315;-70
2022/10/22 04:50:08;;;;;;;32.73;22.77;;;;;;;;;;5030251;28;20195;-70
2022/10/22 04:52:35;;;;;;;34.50;22.00;;;;;;;;;;5030700;28;20192;-70
2022/10/22 04:55:02;;;;;;;31.87;22.40;;;;;;;;;;5031593;28;20914;-71
2022/10/22 04:57:29;;;;;;;31.60;22.13;;;;;;;;;;5031036;28;20280;-70
2022/10/22 05:00:15;;;;;;;31.03;21.40;;;;;;;;;;5021034;28;20305;-70
2022/10/22 05:02:43;;;;;;;29.40;19.77;;;;;;;;;;5031308;28;20863;-71
2022/10/22 05:05:27;;;;;;;31.53;20.67;;;;;;;;;;5031429;28;20219;-71
2022/10/22 05:07:54;;;;;;;36.83;24.30;;;;;;;;;;5030507;28;20198;-71
2022/10/22 05:10:21;;;;;;;37.10;23.57;;;;;;;;;;5013128;28;20612;-70
2022/10/22 05:12:47;;;;;;;33.97;21.33;;;;;;;;;;5030577;28;20187;-71
2022/10/22 05:15:14;;;;;;;37.40;23.93;;;;;;;;;;5029597;28;20187;-70
2022/10/22 05:17:41;;;;;;;35.73;23.03;;;;;;;;;;5014350;28;20585;-71
2022/10/22 05:20:08;;;;;;;33.40;22.10;;;;;;;;;;5012993;28;20663;-71
2022/10/22 05:22:35;;;;;;;35.83;23.03;;;;;;;;;;5031612;28;20598;-71
2022/10/22 05:25:02;;;;;;;35.67;22.90;;;;;;;;;;5030902;28;20211;-71
2022/10/22 05:27:28;;;;;;;30.40;21.77;;;;;;;;;;5031259;28;20211;-71
2022/10/22 05:29:55;;;;;;;35.17;23.93;;;;;;;;;;5031125;28;20205;-72
2022/10/22 05:32:22;;;;;;;33.87;22.97;;;;;;;;;;5026838;28;20850;-70
2022/10/22 05:34:49;;;;;;;39.53;25.17;;;;;;;;;;5028306;28;20539;-73
2022/10/22 05:37:16;;;;;;;42.00;26.70;;;;;;;;;;5028636;28;20199;-70
2022/10/22 05:39:42;;;;;;;38.03;24.33;;;;;;;;;;5028184;28;20200;-70
2022/10/22 05:42:09;;;;;;;41.63;26.13;;;;;;;;;;5037249;28;21179;-70
2022/10/22 05:44:37;;;;;;;37.63;25.47;;;;;;;;;;5031753;28;20201;-68
2022/10/22 05:47:04;;;;;;;40.30;25.93;;;;;;;;;;5030624;28;20241;-70
2022/10/22 05:49:31;;;;;;;38.60;25.00;;;;;;;;;;5036453;28;20884;-71
2022/10/22 05:51:58;;;;;;;45.07;27.77;;;;;;;;;;5022415;28;20203;-69
2022/10/22 05:54:25;;;;;;;44.10;26.97;;;;;;;;;;5018213;28;20203;-70
2022/10/22 05:56:52;;;;;;;39.60;27.00;;;;;;;;;;5033321;28;20195;-71
2022/10/22 05:59:18;;;;;;;43.53;27.33;;;;;;;;;;5019327;28;20289;-69
2022/10/22 06:01:45;;;;;;;43.43;27.37;;;;;;;;;;5032054;28;20209;-69
2022/10/22 06:04:12;;;;;;;44.83;27.50;;;;;;;;;;5028874;28;20198;-70
2022/10/22 06:06:43;;;;;;;42.73;28.47;;;;;;;;;;5016381;28;20231;-72
2022/10/22 06:09:17;;;;;;;42.70;27.60;;;;;;;;;;5019662;28;20192;-69
2022/10/22 06:11:44;;;;;;;40.53;27.90;;;;;;;;;;5023208;28;20214;-69
2022/10/22 06:14:11;;;;;;;45.33;29.00;;;;;;;;;;5029819;28;20202;-69
2022/10/22 06:16:38;;;;;;;45.57;29.47;;;;;;;;;;5004075;28;20298;-70
2022/10/22 06:19:05;;;;;;;42.60;29.63;;;;;;;;;;5021618;28;20187;-70
2022/10/22 06:21:32;;;;;;;49.60;30.53;;;;;;;;;;5025885;28;20687;-68
2022/10/22 06:23:59;;;;;;;50.07;29.50;;;;;;;;;;5012955;28;20266;-71
2022/10/22 06:26:26;;;;;;;50.93;29.67;;;;;;;;;;5031372;28;20211;-69
2022/10/22 06:28:54;;;;;;;43.83;28.00;;;;;;;;;;5023908;28;21058;-69
2022/10/22 06:31:21;;;;;;;44.10;28.23;;;;;;;;;;5025455;28;20187;-73
2022/10/22 06:33:48;;;;;;;45.83;28.30;;;;;;;;;;5014345;28;21075;-72
2022/10/22 06:36:17;;;;;;;46.03;27.07;;;;;;;;;;5031392;28;20597;-72
2022/10/22 06:38:44;;;;;;;38.73;27.57;;;;;;;;;;5020704;28;20316;-73
2022/10/22 06:41:11;;;;;;;39.53;25.00;;;;;;;;;;5031496;28;20175;-73
2022/10/22 06:43:39;;;;;;;41.57;26.07;;;;;;;;;;5019436;28;20210;-71
2022/10/22 06:46:07;;;;;;;39.33;24.73;;;;;;;;;;5010058;28;20230;-70
2022/10/22 06:48:36;;;;;;;40.50;26.90;;;;;;;;;;5008752;28;20288;-69
2022/10/22 06:51:04;;;;;;;40.07;26.77;;;;;;;;;;5022354;28;20190;-72
2022/10/22 06:53:31;;;;;;;43.13;27.30;;;;;;;;;;5025019;28;20193;-72
2022/10/22 06:55:58;;;;;;;39.73;26.97;;;;;;;;;;5019227;28;20281;-69
2022/10/22 06:58:25;;;;;;;47.53;27.90;;;;;;;;;;5003533;28;20191;-74
2022/10/22 07:01:01;;;;;;;41.93;28.53;;;;;;;;;;5027679;28;20196;-73
2022/10/22 07:03:28;;;;;;;43.67;27.57;;;;;;;;;;5031050;28;20274;-72
2022/10/22 07:05:58;;;;;;;43.73;27.30;;;;;;;;;;5029395;28;20575;-73
2022/10/22 07:08:24;;;;;;;41.80;27.13;;;;;;;;;;5020101;28;20257;-74
2022/10/22 07:10:52;;;;;;;40.47;26.73;;;;;;;;;;5003908;28;20235;-76
2022/10/22 07:13:20;;;;;;;40.07;26.33;;;;;;;;;;5019179;28;20658;-68
2022/10/22 07:15:53;;;;;;;43.63;27.93;;;;;;;;;;5032451;28;20191;-69
2022/10/22 07:18:21;;;;;;;42.97;27.80;;;;;;;;;;5025003;28;20191;-71
2022/10/22 07:20:48;;;;;;;41.77;27.27;;;;;;;;;;5030920;28;20199;-71
2022/10/22 07:23:15;;;;;;;42.57;26.60;;;;;;;;;;5032711;28;20202;-71
2022/10/22 07:25:42;;;;;;;42.53;27.90;;;;;;;;;;5018792;28;20212;-69
2022/10/22 07:28:09;;;;;;;40.17;28.27;;;;;;;;;;5022329;28;20831;-71
2022/10/22 07:30:35;;;;;;;43.53;27.77;;;;;;;;;;5016258;28;20188;-71
2022/10/22 07:33:02;;;;;;;47.37;28.90;;;;;;;;;;5019571;28;20265;-70
2022/10/22 07:35:29;;;;;;;48.30;28.43;;;;;;;;;;5024297;28;20207;-69
2022/10/22 07:37:56;;;;;;;46.30;28.20;;;;;;;;;;5025844;28;20195;-69
2022/10/22 07:40:23;;;;;;;45.57;28.07;;;;;;;;;;5010989;28;20191;-68
2022/10/22 07:42:50;;;;;;;44.43;28.67;;;;;;;;;;5030883;28;20234;-69
2022/10/22 07:45:17;;;;;;;43.73;29.03;;;;;;;;;;5029777;28;20234;-71
2022/10/22 07:47:43;;;;;;;44.40;29.17;;;;;;;;;;5024919;28;20228;-71
2022/10/22 07:50:10;;;;;;;46.03;30.47;;;;;;;;;;5023256;28;20190;-71
2022/10/22 07:52:37;;;;;;;45.00;30.20;;;;;;;;;;5027332;28;20618;-73
2022/10/22 07:55:04;;;;;;;48.97;30.47;;;;;;;;;;5028618;28;20195;-70
2022/10/22 07:57:35;;;;;;;48.37;30.47;;;;;;;;;;5006779;28;20204;-73
2022/10/22 08:00:03;;;;;;;44.53;29.50;;;;;;;;;;5013460;28;20203;-72
2022/10/22 08:02:37;;;;;;;46.07;30.67;;;;;;;;;;5023681;28;20776;-72
2022/10/22 08:05:04;;;;;;;45.30;31.00;;;;;;;;;;5025535;28;20281;-72
2022/10/22 08:07:31;;;;;;;43.97;29.20;;;;;;;;;;5027936;28;20210;-70
2022/10/22 08:09:58;;;;;;;47.40;29.13;;;;;;;;;;5034058;28;20617;-73
2022/10/22 08:12:25;;;;;;;46.63;30.23;;;;;;;;;;5032033;28;20204;-72
2022/10/22 08:14:51;;;;;;;46.23;30.17;;;;;;;;;;5034645;28;20283;-72
2022/10/22 08:17:19;;;;;;;47.43;30.53;;;;;;;;;;5017231;28;20182;-71
2022/10/22 08:19:45;;;;;;;47.03;31.43;;;;;;;;;;5034479;28;20187;-71
2022/10/22 08:22:12;;;;;;;46.47;31.40;;;;;;;;;;5034021;28;20190;-70
2022/10/22 08:24:39;;;;;;;45.07;30.83;;;;;;;;;;5017728;28;20233;-72
2022/10/22 08:27:06;;;;;;;45.47;31.27;;;;;;;;;;5033034;28;20211;-72
2022/10/22 08:29:33;;;;;;;50.87;33.37;;;;;;;;;;5026233;28;20219;-72
2022/10/22 08:32:01;;;;;;;47.37;32.87;;;;;;;;;;5029916;28;20195;-71
2022/10/22 08:34:28;;;;;;;47.90;32.47;;;;;;;;;;5034631;28;20559;-70
2022/10/22 08:36:55;;;;;;;49.87;32.90;;;;;;;;;;5002013;28;20596;-70
2022/10/22 08:39:22;;;;;;;50.63;34.10;;;;;;;;;;5030032;28;20189;-70
2022/10/22 08:41:55;;;;;;;51.53;34.33;;;;;;;;;;5016118;28;20685;-70
2022/10/22 08:44:27;;;;;;;52.97;35.17;;;;;;;;;;5001112;28;20210;-70
2022/10/22 08:46:54;;;;;;;52.83;34.83;;;;;;;;;;5012783;28;20574;-70
2022/10/22 08:49:27;;;;;;;51.40;34.87;;;;;;;;;;5004385;28;20199;-70
2022/10/22 08:51:55;;;;;;;53.90;36.33;;;;;;;;;;5014620;28;20254;-70
2022/10/22 08:54:41;;;;;;;56.30;36.53;;;;;;;;;;5011634;28;20191;-71
2022/10/22 08:57:10;;;;;;;55.70;34.97;;;;;;;;;;5027163;28;20195;-70
2022/10/22 08:59:36;;;;;;;55.83;34.47;;;;;;;;;;5033450;28;20199;-70
2022/10/22 09:02:07;;;;;;;60.03;37.00;;;;;;;;;;5033552;28;20269;-70
2022/10/22 09:04:40;;;;;;;57.13;35.67;;;;;;;;;;5015311;28;20207;-71
2022/10/22 09:07:07;;;;;;;60.43;35.90;;;;;;;;;;5015231;28;20610;-70
2022/10/22 09:09:35;;;;;;;58.67;34.60;;;;;;;;;;5014154;28;20720;-71
2022/10/22 09:12:02;;;;;;;56.03;34.13;;;;;;;;;;5014301;28;20198;-70
2022/10/22 09:14:29;;;;;;;56.97;35.67;;;;;;;;;;5015728;28;20199;-70
2022/10/22 09:17:16;;;;;;;58.57;35.03;;;;;;;;;;5014771;28;20198;-70
2022/10/22 09:19:53;;;;;;;61.63;34.70;;;;;;;;;;5015031;28;20294;-70
2022/10/22 09:22:23;;;;;;;61.00;34.57;;;;;;;;;;5006785;28;20202;-70
2022/10/22 09:24:57;;;;;;;56.70;33.77;;;;;;;;;;5016204;28;20222;-70
2022/10/22 09:27:26;;;;;;;64.33;33.87;;;;;;;;;;5014243;28;20239;-69
2022/10/22 09:29:53;;;;;;;60.33;34.03;;;;;;;;;;5027823;28;20191;-72
2022/10/22 09:32:21;;;;;;;55.93;32.70;;;;;;;;;;5031955;28;20230;-73
2022/10/22 09:34:53;;;;;;;63.30;33.30;;;;;;;;;;5030977;28;20219;-72
2022/10/22 09:37:23;;;;;;;61.17;34.47;;;;;;;;;;5018401;28;20201;-71
2022/10/22 09:39:50;;;;;;;65.10;34.77;;;;;;;;;;5019021;28;20191;-73
2022/10/22 09:42:18;;;;;;;69.17;34.37;;;;;;;;;;5022880;28;20792;-74
2022/10/22 09:44:52;;;;;;;57.17;33.10;;;;;;;;;;5033667;28;20195;-73
2022/10/22 09:47:40;;;;;;;67.83;33.53;;;;;;;;;;5031461;28;20238;-73
2022/10/22 09:50:28;;;;;;;58.30;32.17;;;;;;;;;;5018237;28;20316;-73
2022/10/22 09:53:05;;;;;;;60.83;33.23;;;;;;;;;;5029363;28;20613;-72
2022/10/22 09:55:32;;;;;;;64.53;33.43;;;;;;;;;;5031609;28;20657;-74
2022/10/22 09:57:59;;;;;;;63.93;34.27;;;;;;;;;;5034753;28;20223;-74
2022/10/22 10:00:26;;;;;;;62.40;32.63;;;;;;;;;;5015050;28;21253;-73
2022/10/22 10:02:55;;;;;;;59.10;34.30;;;;;;;;;;5020200;28;20220;-70
2022/10/22 10:05:27;;;;;;;58.20;34.03;;;;;;;;;;5033987;28;20205;-70
2022/10/22 10:07:56;;;;;;;55.40;32.20;;;;;;;;;;5033428;28;20250;-70
2022/10/22 10:10:27;;;;;;;62.70;34.80;;;;;;;;;;5032222;28;20286;-72
2022/10/22 10:12:56;;;;;;;59.47;33.23;;;;;;;;;;5028337;28;20209;-74
2022/10/22 10:15:24;;;;;;;56.10;31.83;;;;;;;;;;5020114;28;20220;-71
2022/10/22 10:17:54;;;;;;;51.63;30.07;;;;;;;;;;5032198;28;20218;-74
2022/10/22 10:20:25;;;;;;;47.93;27.43;;;;;;;;;;5028114;28;20209;-58
2022/10/22 10:23:11;;;;;;;43.30;26.63;;;;;;;;;;5021755;28;20207;-61
2022/10/22 10:25:44;;;;;;;46.30;27.80;;;;;;;;;;5028240;28;20199;-58
2022/10/22 10:28:29;;;;;;;43.77;26.33;;;;;;;;;;5010028;28;20214;-58
2022/10/22 10:31:05;;;;;;;45.33;24.53;;;;;;;;;;5034871;28;20987;-59
2022/10/22 10:33:46;;;;;;;41.10;24.07;;;;;;;;;;5027350;28;20199;-59
2022/10/22 10:36:18;;;;;;;40.93;24.87;;;;;;;;;;5016900;28;20223;-59
2022/10/22 10:38:48;;;;;;;41.97;25.00;;;;;;;;;;5027172;28;20245;-62
2022/10/22 10:41:31;;;;;;;41.17;24.33;;;;;;;;;;5016848;28;20219;-60
2022/10/22 10:44:14;;;;;;;43.70;24.57;;;;;;;;;;5023951;28;20196;-61
2022/10/22 10:46:51;;;;;;;45.47;25.33;;;;;;;;;;5018620;28;20207;-60
2022/10/22 10:49:18;;;;;;;39.67;22.17;;;;;;;;;;5020673;28;20229;-59
2022/10/22 10:51:47;;;;;;;35.87;22.27;;;;;;;;;;5025310;28;20231;-60
2022/10/22 10:54:18;;;;;;;42.07;23.77;;;;;;;;;;5015193;28;20198;-61
2022/10/22 10:56:59;;;;;;;38.10;22.80;;;;;;;;;;5018300;28;20587;-60
2022/10/22 10:59:38;;;;;;;38.13;22.20;;;;;;;;;;5015005;28;20235;-60
2022/10/22 11:02:24;;;;;;;31.30;20.57;;;;;;;;;;5031007;28;20258;-72
2022/10/22 11:05:07;;;;;;;32.03;19.10;;;;;;;;;;5031857;28;20206;-72
2022/10/22 11:07:35;;;;;;;34.70;20.37;;;;;;;;;;5023587;28;20227;-69
2022/10/22 11:10:04;;;;;;;31.50;20.30;;;;;;;;;;5014069;28;20227;-68
2022/10/22 11:12:35;;;;;;;31.90;20.67;;;;;;;;;;5017291;28;20738;-70
2022/10/22 11:15:21;;;;;;;30.73;17.87;;;;;;;;;;5020326;28;20198;-69
2022/10/22 11:17:49;;;;;;;31.10;17.70;;;;;;;;;;5035589;28;20708;-69
2022/10/22 11:20:20;;;;;;;30.27;17.83;;;;;;;;;;5017291;28;20199;-70
2022/10/22 11:22:49;;;;;;;31.20;18.90;;;;;;;;;;5032993;28;20186;-68
2022/10/22 11:25:46;;;;;;;28.17;17.33;;;;;;;;;;5020715;28;20964;-69
2022/10/22 11:28:19;;;;;;;28.37;17.57;;;;;;;;;;5022389;28;20261;-68
2022/10/22 11:30:47;;;;;;;28.43;17.10;;;;;;;;;;5020533;28;20252;-67
2022/10/22 11:33:15;;;;;;;25.20;16.40;;;;;;;;;;5019787;28;20615;-68
2022/10/22 11:35:44;;;;;;;30.37;17.73;;;;;;;;;;5010993;28;20190;-67
2022/10/22 11:38:12;;;;;;;29.80;17.33;;;;;;;;;;5027350;28;20185;-67
2022/10/22 11:40:48;;;;;;;30.30;18.47;;;;;;;;;;5005010;28;20290;-68
2022/10/22 11:43:28;;;;;;;30.73;17.90;;;;;;;;;;5023263;28;20242;-68
2022/10/22 11:46:21;;;;;;;29.60;17.90;;;;;;;;;;5026984;28;20253;-67
2022/10/22 11:49:02;;;;;;;34.10;17.43;;;;;;;;;;5018751;28;20226;-67
2022/10/22 11:51:34;;;;;;;31.93;17.10;;;;;;;;;;5019020;28;20706;-69
2022/10/22 11:54:01;;;;;;;35.63;17.97;;;;;;;;;;5029140;28;20819;-69
2022/10/22 11:56:35;;;;;;;36.70;18.93;;;;;;;;;;5020734;28;20666;-67
2022/10/22 11:59:02;;;;;;;43.33;19.37;;;;;;;;;;5030665;28;20193;-67
2022/10/22 12:01:39;;;;;;;44.40;21.20;;;;;;;;;;5020071;28;20192;-67
2022/10/22 12:04:16;;;;;;;46.70;21.30;;;;;;;;;;5028026;28;20186;-67
2022/10/22 12:06:53;;;;;;;46.10;20.97;;;;;;;;;;5033497;28;20230;-67
2022/10/22 12:09:21;;;;;;;47.73;20.80;;;;;;;;;;5028179;28;20206;-69
2022/10/22 12:11:48;;;;;;;48.03;22.00;;;;;;;;;;5022366;28;20218;-68
2022/10/22 12:14:30;;;;;;;52.73;23.30;;;;;;;;;;5031460;28;20183;-73
2022/10/22 12:16:58;;;;;;;43.00;20.83;;;;;;;;;;5028852;28;20278;-70
2022/10/22 12:19:26;;;;;;;51.10;22.27;;;;;;;;;;5024556;28;20672;-69
2022/10/22 12:22:01;;;;;;;50.80;24.50;;;;;;;;;;5018215;28;20278;-68
2022/10/22 12:24:29;;;;;;;59.30;25.83;;;;;;;;;;5018008;28;20199;-70
2022/10/22 12:26:56;;;;;;;63.13;27.07;;;;;;;;;;5015375;28;20214;-70
2022/10/22 12:29:24;;;;;;;72.47;28.87;;;;;;;;;;5032242;28;20196;-68
2022/10/22 12:31:51;;;;;;;64.17;29.50;;;;;;;;;;5031522;28;20273;-68
2022/10/22 12:34:20;;;;;;;67.40;28.90;;;;;;;;;;5019518;28;20596;-71
2022/10/22 12:36:47;;;;;;;63.67;28.20;;;;;;;;;;5021940;28;20206;-67
2022/10/22 12:39:15;;;;;;;73.77;30.17;;;;;;;;;;5023095;28;20685;-68
2022/10/22 12:41:42;;;;;;;69.73;31.20;;;;;;;;;;5029139;28;20198;-68
2022/10/22 12:44:10;;;;;;;65.87;31.23;;;;;;;;;;5006811;28;20247;-68
2022/10/22 12:46:36;;;;;;;72.07;31.90;;;;;;;;;;5014147;28;20219;-69
2022/10/22 12:49:04;;;;;;;67.67;31.70;;;;;;;;;;5014122;28;20219;-68
2022/10/22 12:51:31;;;;;;;77.47;32.03;;;;;;;;;;5013924;28;20781;-69
2022/10/22 12:54:08;;;;;;;77.33;34.63;;;;;;;;;;5009803;28;20188;-69
2022/10/22 12:56:35;;;;;;;76.17;33.37;;;;;;;;;;5030870;28;20659;-70
2022/10/22 12:59:04;;;;;;;81.93;34.47;;;;;;;;;;5019885;28;20205;-68
2022/10/22 13:01:35;;;;;;;79.13;34.50;;;;;;;;;;5032425;28;20195;-68
2022/10/22 13:04:05;;;;;;;83.73;36.13;;;;;;;;;;5018232;28;20805;-68
2022/10/22 13:06:33;;;;;;;80.80;36.17;;;;;;;;;;5031541;28;20226;-68
2022/10/22 13:09:02;;;;;;;83.43;36.63;;;;;;;;;;5035043;28;20184;-69
2022/10/22 13:11:33;;;;;;;89.53;37.83;;;;;;;;;;5031720;28;20210;-68
2022/10/22 13:14:00;;;;;;;88.27;38.03;;;;;;;;;;5024494;28;20741;-68
2022/10/22 13:16:28;;;;;;;95.90;38.10;;;;;;;;;;5014176;28;20196;-70
2022/10/22 13:18:56;;;;;;;90.17;38.10;;;;;;;;;;5026005;28;20249;-72
2022/10/22 13:21:25;;;;;;;80.17;36.37;;;;;;;;;;5020470;28;20183;-68
2022/10/22 13:23:52;;;;;;;82.13;36.17;;;;;;;;;;5030711;28;20196;-68
2022/10/22 13:26:19;;;;;;;74.97;36.57;;;;;;;;;;5025243;28;20206;-69
2022/10/22 13:28:50;;;;;;;70.87;35.00;;;;;;;;;;5022492;28;20293;-69
2022/10/22 13:31:18;;;;;;;78.43;36.07;;;;;;;;;;5022009;28;20705;-68
2022/10/22 13:33:49;;;;;;;77.67;36.50;;;;;;;;;;5026025;28;20289;-67
2022/10/22 13:36:16;;;;;;;74.47;34.13;;;;;;;;;;5021823;28;20194;-68
2022/10/22 13:38:43;;;;;;;81.87;36.07;;;;;;;;;;5023764;28;20550;-69
2022/10/22 13:41:36;;;;;;;81.87;35.77;;;;;;;;;;5029580;28;20215;-67
2022/10/22 13:44:08;;;;;;;74.13;33.07;;;;;;;;;;5018403;28;20222;-70
2022/10/22 13:46:41;;;;;;;73.03;31.47;;;;;;;;;;5034727;28;20194;-69
2022/10/22 13:49:39;;;;;;;75.63;30.37;;;;;;;;;;5026998;28;20179;-69
2022/10/22 13:52:20;;;;;;;67.03;28.40;;;;;;;;;;5023778;28;20672;-70
2022/10/22 13:54:47;;;;;;;67.17;27.00;;;;;;;;;;5015528;28;20202;-69
2022/10/22 13:57:13;;;;;;;68.20;27.57;;;;;;;;;;5024747;28;20201;-69
2022/10/22 13:59:41;;;;;;;67.20;28.23;;;;;;;;;;5019759;28;20206;-68
2022/10/22 14:02:09;;;;;;;72.20;29.43;;;;;;;;;;5032339;28;20199;-70
2022/10/22 14:04:35;;;;;;;63.67;28.10;;;;;;;;;;5016863;28;20661;-69
2022/10/22 14:07:03;;;;;;;62.07;27.43;;;;;;;;;;5020471;28;20735;-67
2022/10/22 14:09:30;;;;;;;66.67;27.30;;;;;;;;;;5030496;28;20224;-68
2022/10/22 14:11:59;;;;;;;64.33;27.17;;;;;;;;;;5019739;28;20210;-68
2022/10/22 14:14:26;;;;;;;64.07;27.57;;;;;;;;;;5005345;28;20649;-67
2022/10/22 14:16:53;;;;;;;66.23;27.13;;;;;;;;;;5010857;28;20654;-67
2022/10/22 14:19:20;;;;;;;61.77;27.20;;;;;;;;;;5026216;28;20209;-68
2022/10/22 14:21:48;;;;;;;66.53;28.57;;;;;;;;;;5029272;28;20280;-68
2022/10/22 14:24:14;;;;;;;62.13;26.57;;;;;;;;;;5032868;28;20252;-67
2022/10/22 14:26:41;;;;;;;62.30;26.93;;;;;;;;;;5030751;28;20588;-68
2022/10/22 14:29:08;;;;;;;62.37;25.53;;;;;;;;;;5021816;28;20228;-68